createdAt,value
2018-02-08T00:02:16.962Z,72.57
2018-02-08T00:04:45.062Z,74.23
2018-02-08T00:07:13.112Z,67.47
2018-02-08T00:09:41.173Z,71.10
2018-02-08T00:12:11.658Z,73.50
2018-02-08T00:14:45.482Z,70.70
2018-02-08T00:20:21.189Z,62.30
2018-02-08T00:22:49.998Z,62.07
2018-02-08T00:25:19.045Z,69.87
2018-02-08T00:27:47.120Z,67.27
2018-02-08T00:30:15.204Z,66.73
2018-02-08T00:32:44.028Z,65.77
2018-02-08T00:35:12.107Z,68.33
2018-02-08T00:37:41.946Z,76.83
2018-02-08T00:40:10.973Z,78.20
2018-02-08T00:42:41.045Z,70.40
2018-02-08T00:45:20.865Z,69.27
2018-02-08T00:47:48.949Z,67.70
2018-02-08T00:50:17.025Z,63.13
2018-02-08T00:52:45.143Z,68.40
2018-02-08T00:55:13.278Z,76.47
2018-02-08T00:58:01.863Z,73.13
2018-02-08T01:00:37.570Z,69.00
2018-02-08T01:03:09.699Z,68.93
2018-02-08T01:05:42.553Z,74.90
2018-02-08T01:08:10.921Z,71.60
2018-02-08T01:10:41.644Z,80.57
2018-02-08T01:13:11.938Z,97.97
2018-02-08T01:15:57.307Z,139.73
2018-02-08T01:18:44.143Z,78.33
2018-02-08T01:21:13.086Z,79.90
2018-02-08T01:23:41.196Z,80.77
2018-02-08T01:26:10.790Z,81.33
2018-02-08T01:28:41.840Z,81.63
2018-02-08T01:31:35.363Z,66.70
2018-02-08T01:34:18.421Z,61.60
2018-02-08T01:39:47.155Z,64.10
2018-02-08T01:42:15.999Z,68.00
2018-02-08T01:44:44.202Z,60.60
2018-02-08T01:47:12.253Z,70.60
2018-02-08T01:50:01.086Z,67.37
2018-02-08T01:53:01.219Z,70.67
2018-02-08T01:55:34.337Z,62.70
2018-02-08T01:58:33.344Z,67.83
2018-02-08T02:01:07.333Z,70.07
2018-02-08T02:03:38.792Z,66.63
2018-02-08T02:06:09.815Z,69.90
2018-02-08T02:08:40.743Z,65.27
2018-02-08T02:11:32.217Z,66.37
2018-02-08T02:14:06.699Z,71.13
2018-02-08T02:19:45.993Z,62.60
2018-02-08T02:22:14.817Z,66.00
2018-02-08T02:24:43.113Z,63.23
2018-02-08T02:27:11.193Z,62.67
2018-02-08T02:29:41.096Z,62.60
2018-02-08T02:32:32.362Z,68.23
2018-02-08T02:44:33.847Z,58.23
2018-02-08T02:47:29.551Z,69.97
2018-02-08T02:50:02.953Z,70.93
2018-02-08T02:52:36.395Z,68.20
2018-02-08T02:55:06.886Z,62.03
2018-02-08T02:57:41.273Z,64.47
2018-02-08T03:00:13.716Z,70.60
2018-02-08T03:03:01.363Z,72.43
2018-02-08T03:08:45.386Z,70.07
2018-02-08T03:11:13.817Z,66.67
2018-02-08T03:13:42.758Z,77.47
2018-02-08T03:16:13.096Z,80.90
2018-02-08T03:18:42.446Z,80.77
2018-02-08T03:21:30.407Z,79.10
2018-02-08T03:24:14.226Z,73.40
2018-02-08T03:33:01.380Z,70.07
2018-02-08T03:35:36.577Z,72.10
2018-02-08T03:38:08.091Z,65.30
2018-02-08T03:40:40.206Z,70.10
2018-02-08T03:43:13.286Z,68.00
2018-02-08T03:49:04.450Z,72.63
2018-02-08T03:51:59.955Z,74.07
2018-02-08T03:54:46.671Z,68.30
2018-02-08T04:00:11.275Z,74.43
2018-02-08T04:02:43.707Z,72.70
2018-02-08T04:05:13.651Z,74.43
2018-02-08T04:07:43.970Z,75.00
2018-02-08T04:10:12.755Z,70.97
2018-02-08T04:12:44.833Z,71.37
2018-02-08T04:15:13.701Z,75.40
2018-02-08T04:17:47.946Z,69.63
2018-02-08T04:20:16.291Z,77.10
2018-02-08T04:22:44.467Z,77.93
2018-02-08T04:25:34.389Z,75.77
2018-02-08T04:28:06.633Z,74.60
2018-02-08T04:30:40.758Z,72.27
2018-02-08T04:33:11.790Z,78.07
2018-02-08T04:35:43.137Z,72.97
2018-02-08T04:38:34.381Z,69.07
2018-02-08T04:41:31.768Z,67.33
2018-02-08T04:44:14.789Z,66.33
2018-02-08T04:50:06.866Z,80.43
2018-02-08T04:52:51.934Z,93.57
2018-02-08T04:55:21.732Z,88.57
2018-02-08T04:57:49.909Z,104.47
2018-02-08T05:00:21.459Z,92.60
2018-02-08T05:03:09.817Z,85.80
2018-02-08T05:05:42.803Z,79.63
2018-02-08T05:08:10.862Z,77.23
2018-02-08T05:10:42.365Z,79.63
2018-02-08T05:13:12.453Z,77.90
2018-02-08T05:15:43.465Z,70.40
2018-02-08T05:18:13.475Z,73.83
2018-02-08T05:20:41.536Z,74.30
2018-02-08T05:23:11.504Z,66.17
2018-02-08T05:25:42.137Z,77.20
2018-02-08T05:28:10.220Z,71.43
2018-02-08T05:30:38.278Z,72.27
2018-02-08T05:33:10.034Z,79.87
2018-02-08T05:35:42.107Z,73.23
2018-02-08T05:41:12.824Z,67.70
2018-02-08T05:43:40.898Z,71.43
2018-02-08T05:46:12.978Z,76.67
2018-02-08T05:48:41.053Z,79.23
2018-02-08T05:51:17.795Z,80.57
2018-02-08T05:53:45.864Z,77.57
2018-02-08T05:56:14.342Z,86.27
2018-02-08T05:58:43.400Z,82.20
2018-02-08T06:01:14.113Z,81.00
2018-02-08T06:03:42.397Z,75.03
2018-02-08T06:06:31.810Z,77.53
2018-02-08T06:09:33.605Z,75.23
2018-02-08T06:12:32.424Z,81.23
2018-02-08T06:18:11.822Z,82.30
2018-02-08T06:20:43.461Z,81.50
2018-02-08T06:23:13.298Z,90.57
2018-02-08T06:25:42.618Z,81.83
2018-02-08T06:28:13.451Z,84.97
2018-02-08T06:30:42.910Z,84.10
2018-02-08T06:33:10.976Z,87.07
2018-02-08T06:35:41.206Z,91.27
2018-02-08T06:38:10.806Z,92.03
2018-02-08T06:40:41.841Z,93.37
2018-02-08T06:43:12.143Z,88.77
2018-02-08T06:48:41.738Z,85.87
2018-02-08T06:51:11.299Z,96.53
2018-02-08T06:53:39.341Z,91.77
2018-02-08T06:56:08.717Z,89.73
2018-02-08T06:58:40.318Z,95.50
2018-02-08T07:01:31.139Z,112.67
2018-02-08T07:04:31.199Z,106.23
2018-02-08T07:07:13.523Z,110.10
2018-02-08T07:09:42.119Z,124.27
2018-02-08T07:12:10.223Z,102.87
2018-02-08T07:14:41.303Z,90.13
2018-02-08T07:17:11.693Z,96.03
2018-02-08T07:19:39.921Z,110.60
2018-02-08T07:22:32.030Z,100.33
2018-02-08T07:25:01.348Z,96.03
2018-02-08T07:27:32.779Z,115.80
2018-02-08T07:30:26.510Z,112.17
2018-02-08T07:33:09.385Z,99.00
2018-02-08T07:35:41.114Z,99.53
2018-02-08T07:38:11.002Z,90.57
2018-02-08T07:40:41.855Z,104.80
2018-02-08T07:43:11.764Z,103.33
2018-02-08T07:46:04.127Z,99.83
2018-02-08T07:48:34.297Z,89.10
2018-02-08T07:51:03.867Z,94.50
2018-02-08T07:53:34.216Z,101.43
2018-02-08T07:56:11.742Z,96.07
2018-02-08T08:01:49.349Z,95.70
2018-02-08T08:04:18.213Z,109.67
2018-02-08T08:06:46.420Z,116.80
2018-02-08T08:09:14.468Z,103.50
2018-02-08T08:11:42.529Z,105.47
2018-02-08T08:14:11.499Z,101.37
2018-02-08T08:16:39.772Z,111.43
2018-02-08T08:19:08.673Z,99.07
2018-02-08T08:21:44.776Z,100.27
2018-02-08T08:24:12.826Z,105.10
2018-02-08T08:26:40.990Z,97.40
2018-02-08T08:29:10.032Z,93.33
2018-02-08T08:31:43.155Z,94.00
2018-02-08T08:34:11.216Z,96.67
2018-02-08T08:36:39.409Z,97.60
2018-02-08T08:39:07.708Z,96.27
2018-02-08T08:41:43.974Z,108.10
2018-02-08T08:44:12.114Z,108.97
2018-02-08T08:46:40.810Z,104.90
2018-02-08T08:49:09.924Z,107.50
2018-02-08T08:51:39.148Z,102.37
2018-02-08T08:54:35.055Z,104.03
2018-02-08T08:57:27.827Z,99.83
2018-02-08T09:00:16.683Z,92.40
2018-02-08T09:02:44.774Z,103.23
2018-02-08T09:05:12.841Z,99.00
2018-02-08T09:07:42.614Z,100.27
2018-02-08T09:10:10.999Z,102.37
2018-02-08T09:13:02.432Z,99.13
2018-02-08T09:15:32.480Z,102.37
2018-02-08T09:18:08.805Z,99.73
2018-02-08T09:20:39.085Z,93.73
2018-02-08T09:23:08.901Z,99.97
2018-02-08T09:25:37.535Z,86.80
2018-02-08T09:28:10.683Z,101.10
2018-02-08T09:31:02.444Z,100.73
2018-02-08T09:33:50.361Z,96.87
2018-02-08T09:36:18.654Z,117.07
2018-02-08T09:38:46.868Z,103.10
2018-02-08T09:41:16.817Z,99.30
2018-02-08T09:43:45.557Z,98.33
2018-02-08T09:46:30.298Z,96.63
2018-02-08T09:49:27.238Z,90.40
2018-02-08T09:52:03.553Z,92.97
2018-02-08T09:54:42.031Z,100.27
2018-02-08T09:57:11.263Z,92.67
2018-02-08T09:59:40.068Z,88.00
2018-02-08T10:02:12.188Z,96.20
2018-02-08T10:04:42.238Z,93.30
2018-02-08T10:07:29.711Z,85.20
2018-02-08T10:10:07.559Z,85.43
2018-02-08T10:12:47.746Z,85.37
2018-02-08T10:15:15.857Z,89.83
2018-02-08T10:17:43.902Z,94.27
2018-02-08T10:20:12.460Z,90.57
2018-02-08T10:22:41.862Z,87.33
2018-02-08T10:25:10.539Z,94.80
2018-02-08T10:27:41.842Z,88.07
2018-02-08T10:30:10.977Z,96.80
2018-02-08T10:32:41.647Z,102.33
2018-02-08T10:35:13.299Z,104.60
2018-02-08T10:37:47.667Z,111.43
2018-02-08T10:40:15.791Z,108.97
2018-02-08T10:42:44.723Z,108.27
2018-02-08T10:45:12.792Z,112.33
2018-02-08T10:47:41.624Z,113.87
2018-02-08T10:50:13.203Z,104.87
2018-02-08T10:53:05.130Z,102.63
2018-02-08T10:55:38.494Z,111.07
2018-02-08T10:58:06.926Z,109.33
2018-02-08T11:00:36.064Z,106.63
2018-02-08T11:03:05.287Z,113.53
2018-02-08T11:08:37.696Z,104.30
2018-02-08T11:11:14.249Z,102.83
2018-02-08T11:13:46.266Z,100.27
2018-02-08T11:16:14.310Z,97.97
2018-02-08T11:18:42.355Z,94.60
2018-02-08T11:21:12.444Z,93.27
2018-02-08T11:24:00.674Z,92.90
2018-02-08T11:27:03.700Z,90.70
2018-02-08T11:29:38.700Z,83.63
2018-02-08T11:32:11.198Z,88.67
2018-02-08T11:34:39.235Z,86.97
2018-02-08T11:37:09.530Z,83.60
2018-02-08T11:39:37.582Z,79.87
2018-02-08T11:42:06.802Z,85.70
2018-02-08T11:47:46.557Z,85.33
2018-02-08T11:50:14.624Z,88.50
2018-02-08T11:52:42.687Z,83.33
2018-02-08T11:55:13.623Z,78.37
2018-02-08T11:57:42.122Z,77.70
2018-02-08T12:00:13.085Z,78.93
2018-02-08T12:02:41.731Z,78.30
2018-02-08T12:05:10.537Z,77.80
2018-02-08T12:07:40.050Z,78.33
2018-02-08T12:10:10.224Z,78.03
2018-02-08T12:12:40.906Z,79.00
2018-02-08T12:15:47.334Z,77.73
2018-02-08T12:18:15.456Z,73.63
2018-02-08T12:20:43.507Z,70.30
2018-02-08T12:23:12.694Z,80.70
2018-02-08T12:25:41.234Z,74.10
2018-02-08T12:28:10.389Z,70.27
2018-02-08T12:30:43.344Z,72.03
2018-02-08T12:33:12.723Z,70.13
2018-02-08T12:35:41.627Z,70.50
2018-02-08T12:38:10.784Z,70.47
2018-02-08T12:40:40.188Z,79.53
2018-02-08T12:43:08.503Z,75.33
2018-02-08T12:45:37.752Z,76.90
2018-02-08T12:48:06.424Z,75.97
2018-02-08T12:50:36.385Z,75.10
2018-02-08T12:53:07.220Z,78.07
2018-02-08T12:55:58.761Z,77.20
2018-02-08T12:58:33.532Z,79.10
2018-02-08T13:01:30.109Z,72.77
2018-02-08T13:04:01.546Z,80.93
2018-02-08T13:06:34.646Z,81.20
2018-02-08T13:09:07.506Z,79.63
2018-02-08T13:11:40.865Z,79.03
2018-02-08T13:14:11.085Z,78.77
2018-02-08T13:16:44.184Z,71.80
2018-02-08T13:19:12.537Z,78.10
2018-02-08T13:21:41.448Z,72.27
2018-02-08T13:24:10.930Z,76.20
2018-02-08T13:26:40.503Z,70.47
2018-02-08T13:29:13.806Z,78.13
2018-02-08T13:32:12.394Z,83.33
2018-02-08T13:34:49.824Z,82.00
2018-02-08T13:37:17.893Z,84.43
2018-02-08T13:39:48.395Z,83.60
2018-02-08T13:42:17.682Z,81.57
2018-02-08T13:44:45.744Z,79.67
2018-02-08T13:47:19.456Z,79.60
2018-02-08T13:49:48.065Z,73.57
2018-02-08T13:52:19.115Z,72.93
2018-02-08T13:54:54.717Z,75.00
2018-02-08T14:01:00.793Z,79.47
2018-02-08T14:03:33.472Z,79.07
2018-02-08T14:06:07.591Z,76.37
2018-02-08T14:12:00.378Z,82.07
2018-02-08T14:17:13.372Z,86.53
2018-02-08T14:19:41.401Z,82.07
2018-02-08T14:22:10.734Z,84.57
2018-02-08T14:25:00.713Z,83.47
2018-02-08T14:27:37.075Z,75.33
2018-02-08T14:30:29.706Z,78.93
2018-02-08T14:33:03.896Z,77.23
2018-02-08T14:35:42.484Z,76.53
2018-02-08T14:38:11.353Z,79.53
2018-02-08T14:40:40.157Z,74.13
2018-02-08T14:43:10.532Z,76.90
2018-02-08T14:45:41.217Z,73.50
2018-02-08T14:51:37.251Z,74.80
2018-02-08T14:54:18.341Z,81.00
2018-02-08T14:56:46.389Z,80.93
2018-02-08T14:59:15.217Z,79.80
2018-02-08T15:01:43.239Z,83.20
2018-02-08T15:04:29.433Z,80.40
2018-02-08T15:07:03.841Z,79.53
2018-02-08T15:09:41.298Z,88.43
2018-02-08T15:12:09.347Z,85.27
2018-02-08T15:14:38.545Z,90.80
2018-02-08T15:17:08.808Z,97.67
2018-02-08T15:19:37.801Z,99.03
2018-02-08T15:22:27.898Z,106.60
2018-02-08T15:25:12.608Z,93.33
2018-02-08T15:27:42.664Z,93.50
2018-02-08T15:30:12.404Z,84.57
2018-02-08T15:32:41.254Z,91.67
2018-02-08T15:35:11.763Z,93.40
2018-02-08T15:37:42.843Z,91.10
2018-02-08T15:40:11.374Z,89.83
2018-02-08T15:42:39.411Z,91.13
2018-02-08T15:45:08.731Z,81.37
2018-02-08T15:47:38.160Z,82.53
2018-02-08T15:50:08.838Z,83.67
2018-02-08T15:53:08.706Z,82.67
2018-02-08T15:55:42.551Z,81.03
2018-02-08T15:58:17.723Z,77.47
2018-02-08T16:00:46.545Z,75.50
2018-02-08T16:03:14.652Z,76.37
2018-02-08T16:05:42.998Z,82.33
2018-02-08T16:08:11.802Z,84.87
2018-02-08T16:10:42.683Z,83.07
2018-02-08T16:13:10.777Z,80.77
2018-02-08T16:15:39.543Z,86.27
2018-02-08T16:18:08.514Z,91.67
2018-02-08T16:20:37.908Z,88.07
2018-02-08T16:23:07.610Z,90.70
2018-02-08T16:25:35.930Z,92.83
2018-02-08T16:28:04.972Z,100.17
2018-02-08T16:30:35.450Z,105.87
2018-02-08T16:33:06.809Z,103.07
2018-02-08T16:36:00.773Z,110.17
2018-02-08T16:38:55.981Z,107.73
2018-02-08T16:41:31.753Z,119.50
2018-02-08T16:44:30.646Z,121.37
2018-02-08T16:47:00.785Z,104.13
2018-02-08T16:49:31.824Z,109.67
2018-02-08T16:52:04.362Z,122.13
2018-02-08T16:54:34.992Z,124.63
2018-02-08T16:57:04.213Z,117.80
2018-02-08T16:59:33.474Z,118.40
2018-02-08T17:02:02.112Z,131.47
2018-02-08T17:04:33.274Z,134.63
2018-02-08T17:07:03.535Z,106.67
2018-02-08T17:09:32.336Z,143.27
2018-02-08T17:12:10.860Z,120.23
2018-02-08T17:14:39.231Z,227.27
2018-02-08T17:17:08.216Z,189.53
2018-02-08T17:19:36.437Z,164.03
2018-02-08T17:22:05.110Z,151.17
2018-02-08T17:24:33.262Z,127.60
2018-02-08T17:27:10.261Z,131.07
2018-02-08T17:29:38.778Z,125.13
2018-02-08T17:32:07.043Z,119.13
2018-02-08T17:34:35.952Z,120.33
2018-02-08T17:37:04.155Z,103.83
2018-02-08T17:39:32.215Z,108.43
2018-02-08T17:42:00.399Z,105.83
2018-02-08T17:44:28.852Z,117.97
2018-02-08T17:46:58.112Z,119.70
2018-02-08T17:49:26.679Z,120.80
2018-02-08T17:51:55.977Z,115.73
2018-02-08T17:54:26.385Z,127.93
2018-02-08T17:56:58.784Z,123.97
2018-02-08T17:59:28.052Z,116.73
2018-02-08T18:01:56.506Z,120.70
2018-02-08T18:04:24.718Z,126.27
2018-02-08T18:06:53.626Z,125.80
2018-02-08T18:09:21.832Z,127.90
2018-02-08T18:11:49.902Z,119.40
2018-02-08T18:14:18.013Z,123.77
2018-02-08T18:16:46.060Z,129.50
2018-02-08T18:19:14.112Z,119.50
2018-02-08T18:21:42.603Z,125.87
2018-02-08T18:24:10.655Z,121.83
2018-02-08T18:26:38.702Z,118.00
2018-02-08T18:29:06.789Z,118.63
2018-02-08T18:31:34.835Z,123.87
2018-02-08T18:34:02.887Z,124.77
2018-02-08T18:36:30.951Z,116.83
2018-02-08T18:38:59.108Z,128.43
2018-02-08T18:41:27.207Z,128.60
2018-02-08T18:43:55.294Z,123.47
2018-02-08T18:46:23.412Z,157.50
2018-02-08T18:48:51.540Z,163.77
2018-02-08T18:51:20.488Z,147.27
2018-02-08T18:53:48.831Z,142.00
2018-02-08T18:56:16.996Z,154.53
2018-02-08T18:58:45.044Z,154.87
2018-02-08T19:01:13.553Z,154.73
2018-02-08T19:03:42.347Z,134.43
2018-02-08T19:06:10.414Z,139.23
2018-02-08T19:08:38.467Z,122.93
2018-02-08T19:11:07.295Z,144.93
2018-02-08T19:13:35.369Z,141.23
2018-02-08T19:16:03.433Z,137.57
2018-02-08T19:18:32.258Z,123.80
2018-02-08T19:21:00.327Z,119.73
2018-02-08T19:23:29.147Z,130.17
2018-02-08T19:25:57.195Z,126.53
2018-02-08T19:28:26.588Z,127.30
2018-02-08T19:30:55.473Z,140.83
2018-02-08T19:33:23.532Z,115.17
2018-02-08T19:35:51.607Z,120.03
2018-02-08T19:38:19.703Z,120.17
2018-02-08T19:40:47.900Z,105.03
2018-02-08T19:43:15.956Z,107.23
2018-02-08T19:45:44.240Z,113.87
2018-02-08T19:48:13.059Z,118.37
2018-02-08T19:50:41.100Z,118.50
2018-02-08T19:53:09.167Z,118.07
2018-02-08T19:55:37.217Z,113.20
2018-02-08T19:58:05.274Z,109.47
2018-02-08T20:00:33.322Z,121.70
2018-02-08T20:03:02.187Z,127.93
2018-02-08T20:05:30.248Z,120.33
2018-02-08T20:07:58.302Z,122.30
2018-02-08T20:10:26.347Z,114.57
2018-02-08T20:12:54.393Z,112.47
2018-02-08T20:15:26.900Z,119.17
2018-02-08T20:17:54.950Z,115.57
2018-02-08T20:20:23.779Z,115.37
2018-02-08T20:22:52.264Z,110.47
2018-02-08T20:25:25.887Z,107.00
2018-02-08T20:27:53.960Z,107.60
2018-02-08T20:30:22.019Z,114.03
2018-02-08T20:32:51.229Z,105.20
2018-02-08T20:35:19.262Z,105.93
2018-02-08T20:37:47.328Z,102.43
2018-02-08T20:40:21.888Z,104.67
2018-02-08T20:42:55.510Z,101.63
2018-02-08T20:45:23.572Z,102.20
2018-02-08T20:47:51.627Z,106.67
2018-02-08T20:50:19.697Z,110.10
2018-02-08T20:52:48.518Z,114.43
2018-02-08T20:55:17.529Z,106.93
2018-02-08T20:57:45.644Z,105.77
2018-02-08T21:00:13.698Z,115.37
2018-02-08T21:02:42.061Z,109.17
2018-02-08T21:05:10.895Z,107.70
2018-02-08T21:07:39.068Z,109.53
2018-02-08T21:10:07.124Z,110.80
2018-02-08T21:12:35.454Z,110.20
2018-02-08T21:15:04.276Z,110.77
2018-02-08T21:17:32.335Z,113.23
2018-02-08T21:20:00.408Z,114.93
2018-02-08T21:22:28.461Z,108.03
2018-02-08T21:24:56.561Z,111.47
2018-02-08T21:27:25.398Z,105.20
2018-02-08T21:29:53.447Z,126.53
2018-02-08T21:32:22.280Z,152.20
2018-02-08T21:34:50.344Z,137.30
2018-02-08T21:37:18.409Z,139.63
2018-02-08T21:39:47.728Z,118.67
2018-02-08T21:42:15.833Z,106.73
2018-02-08T21:44:43.888Z,107.43
2018-02-08T21:47:12.759Z,124.40
2018-02-08T21:49:40.816Z,121.37
2018-02-08T21:52:08.906Z,130.37
2018-02-08T21:54:36.981Z,123.63
2018-02-08T21:57:05.041Z,112.87
2018-02-08T21:59:33.095Z,116.93
2018-02-08T22:02:01.147Z,110.67
2018-02-08T22:04:29.209Z,107.33
2018-02-08T22:06:57.315Z,115.50
2018-02-08T22:09:25.386Z,113.70
2018-02-08T22:11:53.470Z,113.20
2018-02-08T22:14:22.312Z,106.60
2018-02-08T22:16:51.139Z,108.23
2018-02-08T22:19:23.217Z,101.00
2018-02-08T22:21:52.042Z,113.50
2018-02-08T22:24:20.134Z,99.67
2018-02-08T22:26:48.200Z,109.10
2018-02-08T22:29:16.254Z,103.23
2018-02-08T22:31:44.320Z,103.63
2018-02-08T22:34:12.366Z,106.83
2018-02-08T22:36:40.454Z,104.00
2018-02-08T22:39:08.518Z,94.50
2018-02-08T22:41:36.700Z,103.73
2018-02-08T22:44:06.300Z,103.17
2018-02-08T22:46:35.120Z,100.67
2018-02-08T22:49:03.255Z,105.83
2018-02-08T22:51:31.513Z,108.17
2018-02-08T22:53:59.681Z,105.67
2018-02-08T22:56:28.893Z,115.03
2018-02-08T22:59:08.824Z,109.17
2018-02-08T23:01:37.092Z,114.07
2018-02-08T23:04:05.509Z,111.60
2018-02-08T23:06:33.670Z,102.97
2018-02-08T23:09:02.035Z,110.83
2018-02-08T23:11:30.343Z,111.87
2018-02-08T23:13:59.488Z,112.37
2018-02-08T23:16:29.370Z,117.87
2018-02-08T23:18:58.956Z,116.27
2018-02-08T23:21:28.530Z,110.57
2018-02-08T23:23:58.620Z,113.50
2018-02-08T23:26:27.815Z,116.80
2018-02-08T23:29:01.055Z,109.97
2018-02-08T23:31:31.044Z,114.20
2018-02-08T23:34:01.210Z,102.93
2018-02-08T23:36:32.186Z,128.80
2018-02-08T23:39:12.327Z,126.93
2018-02-08T23:41:41.433Z,130.10
2018-02-08T23:44:10.189Z,124.70
2018-02-08T23:46:39.081Z,111.80
2018-02-08T23:49:09.169Z,114.47
2018-02-08T23:51:38.176Z,106.53
2018-02-08T23:54:11.754Z,114.60
2018-02-08T23:56:42.732Z,95.30
2018-02-08T23:59:11.551Z,108.20
